Time;durP1;ratioP1;P1;durP2;ratioP2;P2;SDS_P1;SDS_P2;PMS_P1;PMS_P2;Temp;Humidity;BMP_temperature;BMP_pressure;BME280_temperature;BME280_humidity;BME280_pressure;Samples;Min_cycle;Max_cycle;Signal;HPM_P1;HPM_P2
2022/03/26 00:00:08;;;;;;;34.47;23.87;;;11.50;45.50;;;;;;4994971;28;20316;-78
2022/03/26 00:02:35;;;;;;;29.00;21.73;;;11.40;45.70;;;;;;5012594;28;20615;-77
2022/03/26 00:05:01;;;;;;;26.27;20.33;;;11.40;45.80;;;;;;5011260;28;20588;-78
2022/03/26 00:07:27;;;;;;;24.30;19.20;;;11.40;45.90;;;;;;5012315;28;20177;-78
2022/03/26 00:09:53;;;;;;;31.30;19.95;;;11.40;45.90;;;;;;5012325;28;20569;-78
2022/03/26 00:12:18;;;;;;;27.63;19.57;;;11.30;45.90;;;;;;5012487;28;20201;-78
2022/03/26 00:14:44;;;;;;;33.60;19.57;;;11.30;46.00;;;;;;5012322;28;20974;-78
2022/03/26 00:17:10;;;;;;;28.40;19.20;;;11.30;46.00;;;;;;5010865;28;20260;-78
2022/03/26 00:19:36;;;;;;;27.27;17.55;;;11.30;46.20;;;;;;5011053;28;20166;-78
2022/03/26 00:22:03;;;;;;;26.90;19.80;;;11.30;46.20;;;;;;5011274;28;20235;-78
2022/03/26 00:24:28;;;;;;;26.25;18.38;;;11.30;46.30;;;;;;5014788;28;20209;-78
2022/03/26 00:26:54;;;;;;;23.50;19.43;;;11.20;46.30;;;;;;5011151;28;20181;-78
2022/03/26 00:29:20;;;;;;;24.30;18.33;;;11.20;46.40;;;;;;5010823;28;20209;-78
2022/03/26 00:31:46;;;;;;;25.17;18.60;;;11.20;46.50;;;;;;5010538;28;20609;-79
2022/03/26 00:34:12;;;;;;;28.47;17.27;;;11.20;46.50;;;;;;5010590;28;20683;-78
2022/03/26 00:36:39;;;;;;;24.45;17.13;;;11.20;46.50;;;;;;5012073;28;20565;-78
2022/03/26 00:39:05;;;;;;;23.92;18.20;;;11.20;46.60;;;;;;4993938;28;20170;-79
2022/03/26 00:41:32;;;;;;;24.83;19.42;;;11.10;46.70;;;;;;5011788;28;20585;-78
2022/03/26 00:43:58;;;;;;;23.40;18.63;;;11.10;46.80;;;;;;5010620;28;20170;-78
2022/03/26 00:46:24;;;;;;;26.45;19.38;;;11.10;46.90;;;;;;5010814;28;20261;-78
2022/03/26 00:48:50;;;;;;;25.83;18.45;;;11.10;47.00;;;;;;5010370;28;20494;-79
2022/03/26 00:51:17;;;;;;;26.52;19.60;;;11.00;47.00;;;;;;4993928;28;20220;-78
2022/03/26 00:53:44;;;;;;;24.85;18.90;;;11.00;47.10;;;;;;5011746;28;20807;-78
2022/03/26 00:56:10;;;;;;;26.23;18.00;;;11.00;47.10;;;;;;4994451;28;20262;-78
2022/03/26 00:58:35;;;;;;;24.80;18.27;;;10.90;47.10;;;;;;5010360;28;20178;-78
2022/03/26 01:01:01;;;;;;;23.87;17.93;;;10.90;47.20;;;;;;5012312;28;20193;-78
2022/03/26 01:03:27;;;;;;;24.50;17.87;;;10.90;47.30;;;;;;5014883;28;20166;-78
2022/03/26 01:05:53;;;;;;;26.20;20.10;;;10.90;47.40;;;;;;5011011;28;20581;-78
2022/03/26 01:08:19;;;;;;;30.60;19.90;;;10.80;47.40;;;;;;4994009;28;20828;-78
2022/03/26 01:10:45;;;;;;;23.37;18.20;;;10.80;48.10;;;;;;5010327;28;20265;-78
2022/03/26 01:13:14;;;;;;;29.92;19.50;;;10.80;47.60;;;;;;5010434;28;20573;-78
2022/03/26 01:15:41;;;;;;;28.25;18.70;;;10.80;47.80;;;;;;5012379;28;20277;-78
2022/03/26 01:18:06;;;;;;;25.30;20.65;;;10.70;47.80;;;;;;5010104;28;20709;-78
2022/03/26 01:20:33;;;;;;;27.83;20.80;;;10.70;47.80;;;;;;4993859;28;20286;-79
2022/03/26 01:22:59;;;;;;;30.88;21.45;;;10.70;47.90;;;;;;5010286;28;20202;-78
2022/03/26 01:25:25;;;;;;;27.42;20.13;;;10.60;48.00;;;;;;5011726;28;20174;-78
2022/03/26 01:27:52;;;;;;;33.92;26.35;;;10.60;48.10;;;;;;5010338;28;20232;-78
2022/03/26 01:30:18;;;;;;;32.58;25.45;;;10.60;49.00;;;;;;5011696;28;20244;-78
2022/03/26 01:32:44;;;;;;;35.75;26.88;;;10.50;48.30;;;;;;4977780;28;20511;-78
2022/03/26 01:35:11;;;;;;;33.00;24.60;;;10.50;48.40;;;;;;5011455;28;20290;-78
2022/03/26 01:37:37;;;;;;;35.22;23.42;;;10.50;48.50;;;;;;4994183;28;20508;-78
2022/03/26 01:40:05;;;;;;;30.42;21.85;;;10.40;48.40;;;;;;4997294;28;20175;-78
2022/03/26 01:42:30;;;;;;;30.45;22.17;;;10.40;48.70;;;;;;5010408;28;20241;-78
2022/03/26 01:44:56;;;;;;;26.97;21.60;;;10.40;48.70;;;;;;4993994;28;20216;-78
2022/03/26 01:47:22;;;;;;;27.77;20.63;;;10.40;48.80;;;;;;5011398;28;20199;-78
2022/03/26 01:49:48;;;;;;;25.07;18.90;;;10.30;48.80;;;;;;5010395;28;20573;-78
2022/03/26 01:52:14;;;;;;;29.10;19.80;;;10.30;48.90;;;;;;5030520;23;20225;-75
2022/03/26 01:58:28;;;;;;;32.03;21.20;;;10.20;49.60;;;;;;4986870;28;20202;-78
2022/03/26 02:00:54;;;;;;;30.58;19.50;;;10.20;48.90;;;;;;4996552;28;20265;-78
2022/03/26 02:03:20;;;;;;;30.33;19.73;;;10.10;49.10;;;;;;5001227;28;20292;-77
2022/03/26 02:05:45;;;;;;;26.07;20.07;;;10.00;49.20;;;;;;4998829;28;20171;-77
2022/03/26 02:08:11;;;;;;;24.67;19.30;;;10.00;49.40;;;;;;4996226;28;20168;-77
2022/03/26 02:10:37;;;;;;;29.30;20.23;;;10.00;49.50;;;;;;4995874;28;20533;-77
2022/03/26 02:13:03;;;;;;;28.97;20.37;;;9.90;50.40;;;;;;5002275;28;20719;-78
2022/03/26 02:15:30;;;;;;;28.83;21.35;;;9.90;50.70;;;;;;4997791;28;20293;-77
2022/03/26 02:17:56;;;;;;;29.38;20.88;;;9.80;50.70;;;;;;4999910;28;20171;-77
2022/03/26 02:20:22;;;;;;;28.67;20.60;;;9.80;50.90;;;;;;4998167;28;20171;-77
2022/03/26 02:22:48;;;;;;;29.63;21.08;;;9.80;51.00;;;;;;5002568;28;20999;-77
2022/03/26 02:25:14;;;;;;;28.40;22.10;;;9.80;51.10;;;;;;5002808;28;20171;-77
2022/03/26 02:27:39;;;;;;;27.80;20.47;;;9.70;51.20;;;;;;5006459;28;20588;-77
2022/03/26 02:30:06;;;;;;;27.10;18.47;;;9.70;51.30;;;;;;5000287;28;20167;-78
2022/03/26 02:32:32;;;;;;;24.92;20.60;;;9.70;51.40;;;;;;5002512;28;20187;-78
2022/03/26 02:34:58;;;;;;;27.97;21.00;;;9.70;51.60;;;;;;5014052;28;20198;-78
2022/03/26 02:37:23;;;;;;;28.87;20.63;;;9.60;51.70;;;;;;5025400;28;20605;-77
2022/03/26 02:39:49;;;;;;;28.90;19.53;;;9.60;51.90;;;;;;5019714;28;20167;-76
2022/03/26 02:42:15;;;;;;;28.90;21.20;;;9.60;51.90;;;;;;5015882;28;20189;-77
2022/03/26 02:44:42;;;;;;;34.33;22.65;;;9.60;52.00;;;;;;5016115;28;20573;-77
2022/03/26 02:47:10;;;;;;;26.33;20.45;;;9.50;52.10;;;;;;5007678;28;20244;-77
2022/03/26 02:49:36;;;;;;;31.20;21.45;;;9.50;52.30;;;;;;5003976;28;20183;-77
2022/03/26 02:52:03;;;;;;;32.83;21.52;;;9.50;52.30;;;;;;4998923;28;20265;-78
2022/03/26 02:54:28;;;;;;;31.63;21.60;;;9.50;52.50;;;;;;5005760;28;20217;-78
2022/03/26 02:56:54;;;;;;;28.30;22.70;;;9.50;52.60;;;;;;5001195;28;20171;-77
2022/03/26 02:59:21;;;;;;;32.92;24.20;;;9.50;52.80;;;;;;5000078;28;20305;-77
2022/03/26 03:01:47;;;;;;;28.02;21.25;;;9.50;53.00;;;;;;5001913;28;20174;-78
2022/03/26 03:04:13;;;;;;;28.42;21.10;;;9.40;52.90;;;;;;5002508;28;20168;-76
2022/03/26 03:06:38;;;;;;;28.23;20.37;;;9.40;53.20;;;;;;4999736;28;20190;-76
2022/03/26 03:09:06;;;;;;;30.40;20.87;;;9.40;53.30;;;;;;4999506;28;20163;-76
2022/03/26 03:11:33;;;;;;;27.33;19.58;;;9.40;53.50;;;;;;5000904;28;20170;-76
2022/03/26 03:13:59;;;;;;;29.77;18.75;;;9.40;53.60;;;;;;4993908;28;20221;-76
2022/03/26 03:16:25;;;;;;;28.80;21.67;;;9.40;53.70;;;;;;4994573;28;20159;-76
2022/03/26 03:18:51;;;;;;;30.40;22.40;;;9.30;53.80;;;;;;4995075;28;20163;-76
2022/03/26 03:21:18;;;;;;;24.98;19.17;;;9.30;53.90;;;;;;4993657;28;20579;-75
2022/03/26 03:23:44;;;;;;;32.55;22.30;;;9.30;54.10;;;;;;4995019;28;20187;-76
2022/03/26 03:26:10;;;;;;;30.23;21.77;;;9.30;54.30;;;;;;4994380;28;20306;-76
2022/03/26 03:28:37;;;;;;;30.60;22.95;;;9.30;54.40;;;;;;4994235;28;20171;-76
2022/03/26 03:31:03;;;;;;;27.63;20.45;;;9.20;54.50;;;;;;4994014;28;20202;-76
2022/03/26 03:33:29;;;;;;;31.73;22.50;;;9.20;54.60;;;;;;4994851;28;20288;-77
2022/03/26 03:35:55;;;;;;;33.50;23.07;;;9.20;54.70;;;;;;4997718;28;20625;-77
2022/03/26 03:38:21;;;;;;;28.37;22.37;;;9.20;55.00;;;;;;4993729;28;20163;-76
2022/03/26 03:40:46;;;;;;;28.83;21.80;;;9.20;55.10;;;;;;4993681;28;20666;-76
2022/03/26 03:43:12;;;;;;;27.30;20.57;;;9.10;55.20;;;;;;4993622;28;20606;-76
2022/03/26 03:45:38;;;;;;;23.50;19.03;;;9.10;55.30;;;;;;4976400;28;20175;-75
2022/03/26 03:48:04;;;;;;;29.60;20.90;;;9.10;55.40;;;;;;4992259;28;20209;-76
2022/03/26 03:50:29;;;;;;;26.63;19.63;;;9.10;55.70;;;;;;4994054;28;20171;-76
2022/03/26 03:52:55;;;;;;;23.80;18.37;;;9.10;55.80;;;;;;4992412;28;20702;-76
2022/03/26 03:55:21;;;;;;;25.37;18.10;;;9.10;56.00;;;;;;4993639;28;20285;-76
2022/03/26 03:57:46;;;;;;;29.80;20.53;;;9.00;56.00;;;;;;4992416;28;20171;-76
2022/03/26 04:00:14;;;;;;;29.13;19.97;;;9.00;56.20;;;;;;4991995;28;20250;-76
2022/03/26 04:02:42;;;;;;;26.30;19.20;;;9.00;56.50;;;;;;4992543;28;20198;-76
2022/03/26 04:05:13;;;;;;;23.60;17.63;;;9.00;56.60;;;;;;4992903;28;20175;-76
2022/03/26 04:07:46;;;;;;;28.25;19.33;;;9.00;56.80;;;;;;4993775;28;20190;-76
2022/03/26 04:10:12;;;;;;;25.65;18.65;;;8.90;57.20;;;;;;4992686;28;20513;-76
2022/03/26 04:12:39;;;;;;;30.55;19.95;;;8.90;57.00;;;;;;4993277;28;20191;-76
2022/03/26 04:15:07;;;;;;;24.33;19.42;;;8.90;57.20;;;;;;4992673;28;20190;-76
2022/03/26 04:17:33;;;;;;;25.88;19.30;;;8.90;57.40;;;;;;4993327;28;20623;-76
2022/03/26 04:19:59;;;;;;;26.23;19.43;;;8.80;57.40;;;;;;4993187;28;20258;-77
2022/03/26 04:22:25;;;;;;;26.02;20.15;;;8.80;57.60;;;;;;4991184;28;20594;-77
2022/03/26 04:24:51;;;;;;;24.50;19.30;;;8.80;57.70;;;;;;4991439;28;20244;-77
2022/03/26 04:27:16;;;;;;;29.77;20.30;;;8.80;58.00;;;;;;4992465;28;20194;-77
2022/03/26 04:29:42;;;;;;;26.87;18.70;;;8.80;58.00;;;;;;4991094;28;20167;-77
2022/03/26 04:32:10;;;;;;;27.33;20.50;;;8.70;58.00;;;;;;4992475;28;20195;-77
2022/03/26 04:34:36;;;;;;;28.13;20.23;;;8.70;58.20;;;;;;5007637;28;20225;-77
2022/03/26 04:37:03;;;;;;;28.70;19.55;;;8.70;58.40;;;;;;4991266;28;20179;-77
2022/03/26 04:39:29;;;;;;;27.77;21.08;;;8.70;58.50;;;;;;4992064;28;20206;-77
2022/03/26 04:41:55;;;;;;;30.10;21.83;;;8.60;58.80;;;;;;4992213;28;20195;-77
2022/03/26 04:44:20;;;;;;;29.70;21.27;;;8.60;58.80;;;;;;4992190;28;20582;-77
2022/03/26 04:46:46;;;;;;;33.03;20.00;;;8.60;59.10;;;;;;4992101;28;20175;-77
2022/03/26 04:49:12;;;;;;;25.23;19.80;;;8.60;59.30;;;;;;4991049;28;20533;-77
2022/03/26 04:51:38;;;;;;;27.07;20.90;;;8.60;59.30;;;;;;4992028;28;20166;-77
2022/03/26 04:54:04;;;;;;;28.23;20.57;;;8.50;59.60;;;;;;4992220;28;20171;-77
2022/03/26 04:56:29;;;;;;;28.17;20.63;;;8.50;59.80;;;;;;4991885;28;20221;-77
2022/03/26 04:58:55;;;;;;;27.43;19.70;;;8.50;60.00;;;;;;4991953;28;20171;-77
2022/03/26 05:01:22;;;;;;;26.90;20.63;;;8.50;60.30;;;;;;4992039;28;20190;-78
2022/03/26 05:03:49;;;;;;;27.45;19.05;;;8.50;60.40;;;;;;4990852;28;20660;-78
2022/03/26 05:06:15;;;;;;;31.92;19.88;;;8.50;60.60;;;;;;4992111;28;20178;-78
2022/03/26 05:08:41;;;;;;;29.05;19.80;;;8.40;60.70;;;;;;4991796;28;20206;-78
2022/03/26 05:11:07;;;;;;;27.70;19.93;;;8.40;60.90;;;;;;4991956;28;20640;-78
2022/03/26 05:13:32;;;;;;;25.50;18.47;;;8.30;61.20;;;;;;4991996;28;20551;-77
2022/03/26 05:15:58;;;;;;;28.87;19.97;;;8.30;61.50;;;;;;4991907;28;20964;-78
2022/03/26 05:18:24;;;;;;;29.80;20.10;;;8.30;61.60;;;;;;4991755;28;20172;-77
2022/03/26 05:20:50;;;;;;;26.60;20.57;;;8.30;61.90;;;;;;4991893;28;20570;-77
2022/03/26 05:23:16;;;;;;;24.37;19.00;;;8.30;62.20;;;;;;4991880;28;20598;-78
2022/03/26 05:25:42;;;;;;;28.40;20.13;;;8.30;62.60;;;;;;4992039;28;20569;-77
2022/03/26 05:28:08;;;;;;;30.00;19.80;;;8.30;62.80;;;;;;4993708;28;20578;-77
2022/03/26 05:30:33;;;;;;;29.37;20.77;;;8.30;63.10;;;;;;4995363;28;20175;-78
2022/03/26 05:33:00;;;;;;;25.70;19.00;;;8.30;63.20;;;;;;4994334;28;20676;-77
2022/03/26 05:35:27;;;;;;;23.00;18.15;;;8.30;63.40;;;;;;4995482;28;20233;-78
2022/03/26 05:37:53;;;;;;;25.30;18.30;;;8.30;63.60;;;;;;4995215;28;20171;-78
2022/03/26 05:40:20;;;;;;;28.58;18.15;;;8.40;64.00;;;;;;4995385;28;20547;-78
2022/03/26 05:42:47;;;;;;;22.98;17.75;;;8.40;64.30;;;;;;4994185;28;20582;-78
2022/03/26 05:45:14;;;;;;;28.15;18.67;;;8.40;64.30;;;;;;5010501;28;20525;-78
2022/03/26 05:47:40;;;;;;;23.92;17.58;;;8.40;64.50;;;;;;4993912;28;20210;-77
2022/03/26 05:50:08;;;;;;;19.40;15.25;;;8.50;64.50;;;;;;4995425;28;20178;-78
2022/03/26 05:52:34;;;;;;;22.92;15.82;;;8.50;64.50;;;;;;4993723;28;20610;-78
2022/03/26 05:54:59;;;;;;;23.50;15.60;;;8.60;64.30;;;;;;4994090;28;20198;-78
2022/03/26 05:57:25;;;;;;;25.57;17.10;;;8.60;64.40;;;;;;4994898;28;20167;-78
2022/03/26 05:59:52;;;;;;;21.90;16.48;;;8.70;64.70;;;;;;4994897;28;20693;-78
2022/03/26 06:02:17;;;;;;;31.30;17.70;;;8.70;65.20;;;;;;4993855;28;20187;-78
2022/03/26 06:04:44;;;;;;;24.70;16.73;;;8.80;65.20;;;;;;4995539;28;20565;-79
2022/03/26 06:07:10;;;;;;;22.98;17.35;;;8.80;65.50;;;;;;4993362;28;20186;-77
2022/03/26 06:09:37;;;;;;;24.95;17.42;;;8.90;65.90;;;;;;4994948;28;20174;-77
2022/03/26 06:12:04;;;;;;;22.27;17.75;;;9.00;65.90;;;;;;4995173;28;20230;-78
2022/03/26 06:14:29;;;;;;;24.73;19.15;;;9.00;66.00;;;;;;4994891;28;20567;-78
2022/03/26 06:16:56;;;;;;;24.40;18.20;;;9.10;66.40;;;;;;4993545;28;20160;-79
2022/03/26 06:19:22;;;;;;;24.65;18.40;;;9.10;66.60;;;;;;4994554;28;20627;-76
2022/03/26 06:21:48;;;;;;;26.17;19.77;;;9.20;66.60;;;;;;5009599;28;20202;-78
2022/03/26 06:24:13;;;;;;;27.73;20.67;;;9.30;66.80;;;;;;4993730;28;20175;-77
2022/03/26 06:26:41;;;;;;;22.67;18.10;;;9.30;67.00;;;;;;4994537;28;21205;-78
2022/03/26 06:29:07;;;;;;;26.70;19.17;;;9.40;67.00;;;;;;4994543;28;20172;-78
2022/03/26 06:31:32;;;;;;;23.97;19.40;;;9.40;66.90;;;;;;4994520;28;20167;-77
2022/03/26 06:33:58;;;;;;;24.20;19.57;;;9.50;67.30;;;;;;4994399;28;20730;-78
2022/03/26 06:36:26;;;;;;;26.42;19.80;;;9.60;67.40;;;;;;4993220;28;20230;-77
2022/03/26 06:38:52;;;;;;;26.88;21.33;;;9.60;67.60;;;;;;4992695;28;20179;-77
2022/03/26 06:41:18;;;;;;;26.13;19.27;;;9.70;67.80;;;;;;4977549;28;20171;-77
2022/03/26 06:43:45;;;;;;;26.30;20.30;;;9.80;67.90;;;;;;4993135;28;20656;-77
2022/03/26 06:46:12;;;;;;;25.52;21.20;;;9.90;68.30;;;;;;4993149;28;20170;-78
2022/03/26 06:48:38;;;;;;;25.48;19.85;;;10.00;66.90;;;;;;4994026;28;20519;-78
2022/03/26 06:51:06;;;;;;;29.35;21.10;;;10.10;67.00;;;;;;4994094;28;20171;-78
2022/03/26 06:53:35;;;;;;;27.85;21.35;;;10.20;67.10;;;;;;4992683;28;20203;-77
2022/03/26 06:56:02;;;;;;;25.27;20.88;;;10.30;67.10;;;;;;4992785;28;20289;-77
2022/03/26 06:58:28;;;;;;;25.50;20.40;;;10.50;67.10;;;;;;4993846;28;20221;-77
2022/03/26 07:00:54;;;;;;;24.98;19.92;;;10.60;67.10;;;;;;4993090;28;20535;-78
2022/03/26 07:03:20;;;;;;;27.93;20.80;;;10.70;67.10;;;;;;4994206;28;20202;-77
2022/03/26 07:05:46;;;;;;;25.93;21.07;;;10.90;67.40;;;;;;4993977;28;20287;-77
2022/03/26 07:08:12;;;;;;;23.70;20.33;;;11.00;67.40;;;;;;4993676;28;20185;-77
2022/03/26 07:10:41;;;;;;;26.23;20.92;;;11.10;67.20;;;;;;4976328;28;20257;-77
2022/03/26 07:13:07;;;;;;;29.42;21.50;;;11.30;67.30;;;;;;4992377;28;20326;-77
2022/03/26 07:15:33;;;;;;;25.85;19.92;;;11.40;67.10;;;;;;4993621;28;20207;-77
2022/03/26 07:17:59;;;;;;;24.50;19.63;;;11.60;67.30;;;;;;4994371;28;20172;-78
2022/03/26 07:20:25;;;;;;;24.00;19.60;;;12.00;67.70;;;;;;4993601;28;20558;-78
2022/03/26 07:22:51;;;;;;;25.45;20.75;;;12.50;68.40;;;;;;4993532;28;20197;-78
2022/03/26 07:25:16;;;;;;;23.53;20.20;;;13.20;69.60;;;;;;4992162;28;20265;-78
2022/03/26 07:27:42;;;;;;;24.00;18.53;;;14.00;70.60;;;;;;4993343;28;20537;-78
2022/03/26 07:30:09;;;;;;;22.10;18.90;;;14.90;70.90;;;;;;4991871;28;20201;-78
2022/03/26 07:32:35;;;;;;;21.30;17.80;;;15.80;70.60;;;;;;4980642;28;20610;-78
2022/03/26 07:35:02;;;;;;;19.73;15.63;;;16.80;70.10;;;;;;4983915;28;20626;-78
2022/03/26 07:37:28;;;;;;;19.60;15.00;;;17.70;68.60;;;;;;4983032;28;20646;-79
2022/03/26 07:39:54;;;;;;;21.63;17.10;;;18.60;67.30;;;;;;4982149;28;20578;-80
2022/03/26 07:42:19;;;;;;;19.23;17.27;;;19.40;65.80;;;;;;4983832;28;20215;-78
2022/03/26 07:44:45;;;;;;;20.30;17.17;;;20.30;64.10;;;;;;4982703;28;20199;-78
2022/03/26 07:47:11;;;;;;;19.80;16.57;;;21.10;62.50;;;;;;4982288;28;20182;-78
2022/03/26 07:49:37;;;;;;;19.57;17.30;;;21.80;60.80;;;;;;4982014;28;20245;-79
2022/03/26 07:52:03;;;;;;;18.23;15.23;;;22.50;59.60;;;;;;4982020;28;20234;-78
2022/03/26 07:54:29;;;;;;;19.27;16.30;;;23.10;58.30;;;;;;4982809;28;20203;-79
2022/03/26 07:56:55;;;;;;;19.67;17.70;;;23.70;57.20;;;;;;5014450;28;20594;-79
2022/03/26 07:59:21;;;;;;;21.07;17.90;;;24.30;56.10;;;;;;4966025;28;20685;-79
2022/03/26 08:01:46;;;;;;;17.93;16.13;;;24.80;55.20;;;;;;4981336;28;20679;-79
2022/03/26 08:04:12;;;;;;;20.80;17.63;;;25.30;54.40;;;;;;4989158;28;20171;-79
2022/03/26 08:06:38;;;;;;;19.90;17.80;;;25.90;53.80;;;;;;4989069;28;20175;-78
2022/03/26 08:09:04;;;;;;;19.80;17.77;;;26.40;53.00;;;;;;4981467;28;20259;-78
2022/03/26 08:11:30;;;;;;;17.63;15.87;;;26.90;52.20;;;;;;4989687;28;20597;-79
2022/03/26 08:13:55;;;;;;;19.53;17.63;;;27.40;51.40;;;;;;4992849;28;20378;-78
2022/03/26 08:16:21;;;;;;;18.80;16.90;;;27.90;50.80;;;;;;4992488;28;20177;-78
2022/03/26 08:18:47;;;;;;;21.07;18.87;;;28.30;49.30;;;;;;4990785;28;20182;-78
2022/03/26 08:21:14;;;;;;;17.63;15.87;;;28.60;48.50;;;;;;4992480;28;20167;-78
2022/03/26 08:23:40;;;;;;;19.63;17.73;;;28.90;48.00;;;;;;4991181;28;20537;-78
2022/03/26 08:26:23;;;;;;;20.43;17.50;;;29.30;47.30;;;;;;4975163;28;20589;-77
2022/03/26 08:28:54;;;;;;;19.13;16.67;;;29.60;46.50;;;;;;4990959;28;20601;-78
2022/03/26 08:31:21;;;;;;;19.73;17.70;;;29.80;45.40;;;;;;4993718;28;20574;-77
2022/03/26 08:33:48;;;;;;;20.17;18.17;;;30.00;45.20;;;;;;5027150;22;20760;-76
2022/03/26 08:36:15;;;;;;;19.73;17.17;;;30.30;44.70;;;;;;5044299;28;20639;-76
2022/03/26 08:38:44;;;;;;;20.23;18.13;;;30.50;43.80;;;;;;5030100;28;20918;-75
2022/03/26 08:41:11;;;;;;;19.37;17.37;;;30.70;43.20;;;;;;5028407;28;20667;-75
2022/03/26 08:43:37;;;;;;;20.43;18.60;;;30.90;42.80;;;;;;5029507;28;20600;-76
2022/03/26 08:46:03;;;;;;;19.77;17.80;;;31.10;42.40;;;;;;5028661;28;20672;-75
2022/03/26 08:48:28;;;;;;;18.90;17.00;;;31.40;42.10;;;;;;5032503;28;20197;-74
2022/03/26 08:50:54;;;;;;;20.53;18.07;;;31.50;41.60;;;;;;5028922;28;20170;-74
2022/03/26 08:53:20;;;;;;;19.63;17.67;;;31.80;41.20;;;;;;5030358;28;20194;-75
2022/03/26 08:55:47;;;;;;;20.70;18.53;;;32.00;40.70;;;;;;5028696;28;20207;-75
2022/03/26 08:58:14;;;;;;;19.07;17.40;;;32.30;40.20;;;;;;5030773;28;20297;-75
2022/03/26 09:00:40;;;;;;;20.00;17.90;;;32.50;39.80;;;;;;5010038;28;20595;-75
2022/03/26 09:03:05;;;;;;;20.70;18.50;;;32.80;39.30;;;;;;5014325;28;20607;-75
2022/03/26 09:05:31;;;;;;;20.13;18.20;;;33.00;38.80;;;;;;5031752;28;20599;-74
2022/03/26 09:07:57;;;;;;;21.77;19.57;;;33.30;38.50;;;;;;5034003;28;20649;-75
2022/03/26 09:10:23;;;;;;;21.07;18.87;;;33.40;38.00;;;;;;5035254;28;20636;-74
2022/03/26 09:12:49;;;;;;;21.77;19.57;;;33.50;36.90;;;;;;5033219;28;20623;-75
2022/03/26 09:15:15;;;;;;;20.50;18.60;;;33.60;36.90;;;;;;5035226;28;20204;-75
2022/03/26 09:17:41;;;;;;;19.70;17.80;;;33.70;36.40;;;;;;5034921;28;20176;-74
2022/03/26 09:20:08;;;;;;;20.70;18.70;;;33.70;36.30;;;;;;5033710;28;20577;-75
2022/03/26 09:22:35;;;;;;;20.07;17.97;;;33.80;36.10;;;;;;5033890;28;20175;-75
2022/03/26 09:25:02;;;;;;;20.40;18.50;;;33.90;35.90;;;;;;5036535;28;20617;-74
2022/03/26 09:27:28;;;;;;;18.83;16.87;;;34.10;35.80;;;;;;5033964;28;20590;-74
2022/03/26 09:29:57;;;;;;;20.60;18.60;;;34.20;35.30;;;;;;5034544;28;20584;-77
2022/03/26 09:32:23;;;;;;;19.67;17.70;;;34.30;35.20;;;;;;5034314;28;20260;-75
2022/03/26 09:34:49;;;;;;;20.60;18.57;;;34.50;35.00;;;;;;5033374;28;20689;-76
2022/03/26 09:37:16;;;;;;;20.80;18.80;;;34.40;34.30;;;;;;5034615;28;20179;-75
2022/03/26 09:39:42;;;;;;;19.87;17.97;;;34.10;33.80;;;;;;5033288;28;20582;-75
2022/03/26 09:42:09;;;;;;;21.80;18.80;;;34.10;34.10;;;;;;5034409;28;20571;-76
2022/03/26 09:44:35;;;;;;;21.70;19.60;;;34.20;33.80;;;;;;5033401;28;20641;-76
2022/03/26 09:47:04;;;;;;;21.13;18.90;;;34.30;33.60;;;;;;5034851;28;20573;-75
2022/03/26 09:49:30;;;;;;;22.23;19.87;;;34.40;33.70;;;;;;5033526;28;21157;-75
2022/03/26 09:51:57;;;;;;;22.53;20.30;;;34.60;33.50;;;;;;4997616;28;20593;-76
2022/03/26 09:54:23;;;;;;;20.90;19.00;;;34.60;33.40;;;;;;5047265;28;21027;-76
2022/03/26 09:56:49;;;;;;;21.37;19.17;;;34.80;33.30;;;;;;5034625;28;20636;-75
2022/03/26 09:59:18;;;;;;;25.77;20.03;;;34.90;32.80;;;;;;5033700;28;20279;-75
2022/03/26 10:01:45;;;;;;;24.00;20.70;;;34.90;32.30;;;;;;5020739;28;20593;-75
2022/03/26 10:04:12;;;;;;;22.20;19.90;;;34.90;32.20;;;;;;5032737;28;20631;-75
2022/03/26 10:06:52;;;;;;;29.00;21.27;;;35.00;32.30;;;;;;5023650;28;20188;-76
2022/03/26 10:09:41;;;;;;;21.63;19.43;;;35.10;31.90;;;;;;5032606;28;20674;-75
2022/03/26 10:12:15;;;;;;;21.77;19.60;;;35.20;31.60;;;;;;5032581;28;20563;-74
2022/03/26 10:14:58;;;;;;;20.40;18.30;;;35.30;31.70;;;;;;5034213;28;20627;-75
2022/03/26 10:17:26;;;;;;;20.20;18.10;;;35.30;31.60;;;;;;5034111;28;20584;-75
2022/03/26 10:19:57;;;;;;;17.83;16.17;;;35.40;31.20;;;;;;5034307;28;20942;-75
2022/03/26 10:22:29;;;;;;;20.33;18.17;;;35.40;31.10;;;;;;5049517;28;20574;-76
2022/03/26 10:25:00;;;;;;;21.37;19.37;;;35.60;30.80;;;;;;5032872;28;20619;-75
2022/03/26 10:27:27;;;;;;;18.50;16.70;;;35.70;30.40;;;;;;5032835;28;20588;-76
2022/03/26 10:29:59;;;;;;;21.33;19.37;;;35.80;30.60;;;;;;5032636;28;20582;-76
2022/03/26 10:32:41;;;;;;;23.07;20.67;;;35.80;30.00;;;;;;5049395;28;20930;-76
2022/03/26 10:35:13;;;;;;;21.10;18.33;;;35.70;29.80;;;;;;5032865;28;20650;-75
2022/03/26 10:37:44;;;;;;;19.87;17.87;;;35.50;29.70;;;;;;5033932;28;20571;-76
2022/03/26 10:40:31;;;;;;;20.60;18.60;;;35.20;29.70;;;;;;5038303;28;20563;-75
2022/03/26 10:43:01;;;;;;;22.13;20.13;;;34.90;30.00;;;;;;5033711;28;20630;-75
2022/03/26 10:45:28;;;;;;;23.40;19.27;;;34.70;29.80;;;;;;5033653;28;20620;-75
2022/03/26 10:47:56;;;;;;;20.77;18.50;;;34.50;29.60;;;;;;5033303;28;20578;-75
2022/03/26 10:50:23;;;;;;;18.90;17.10;;;34.10;29.60;;;;;;5033476;28;20565;-75
2022/03/26 10:52:53;;;;;;;19.13;17.13;;;33.80;29.70;;;;;;5032345;28;20591;-75
2022/03/26 10:55:19;;;;;;;18.03;16.03;;;33.60;29.70;;;;;;5032380;28;20576;-76
2022/03/26 10:57:46;;;;;;;19.77;17.50;;;33.50;29.80;;;;;;5033391;28;20574;-76
2022/03/26 11:00:17;;;;;;;17.37;15.63;;;33.30;29.90;;;;;;5048901;28;20183;-76
2022/03/26 11:02:44;;;;;;;23.27;19.40;;;33.10;29.80;;;;;;5032087;28;20635;-76
2022/03/26 11:05:11;;;;;;;20.70;18.50;;;33.00;29.70;;;;;;5031782;28;20963;-75
2022/03/26 11:07:40;;;;;;;23.93;20.17;;;32.80;29.70;;;;;;5048746;28;20597;-75
2022/03/26 11:10:06;;;;;;;18.30;16.40;;;32.70;29.90;;;;;;5033103;28;20630;-75
2022/03/26 11:12:33;;;;;;;19.37;17.47;;;32.50;29.70;;;;;;5033296;28;20571;-76
2022/03/26 11:15:02;;;;;;;17.83;16.13;;;32.40;29.80;;;;;;5035402;28;20576;-76
2022/03/26 11:17:37;;;;;;;20.73;18.70;;;32.30;29.70;;;;;;5034752;28;20664;-75
2022/03/26 11:20:24;;;;;;;20.77;18.57;;;32.00;29.40;;;;;;5031829;28;20572;-75
2022/03/26 11:23:20;;;;;;;19.63;17.60;;;31.70;29.60;;;;;;5033085;28;20629;-75
2022/03/26 11:26:18;;;;;;;18.70;16.80;;;31.50;29.80;;;;;;5014476;28;20634;-75
2022/03/26 11:28:47;;;;;;;20.50;17.87;;;31.30;29.80;;;;;;5031491;28;20623;-76
2022/03/26 11:31:21;;;;;;;20.53;16.80;;;31.00;29.80;;;;;;5015305;28;20572;-76
2022/03/26 11:33:49;;;;;;;21.37;18.80;;;30.80;30.00;;;;;;5032502;28;20609;-76
2022/03/26 11:36:18;;;;;;;26.77;18.90;;;30.70;30.20;;;;;;5032957;28;20600;-77
2022/03/26 11:39:07;;;;;;;24.75;22.25;;;30.70;30.40;;;;;;5031928;28;20714;-77
2022/03/26 11:41:33;;;;;;;22.37;17.50;;;30.30;30.10;;;;;;5032778;28;20169;-77
2022/03/26 11:44:01;;;;;;;21.27;17.97;;;30.30;30.40;;;;;;5031316;28;20604;-77
2022/03/26 11:52:14;;;;;;;20.20;16.20;;;30.00;30.50;;;;;;5035296;28;20579;-77
2022/03/26 11:54:40;;;;;;;20.47;17.70;;;29.80;30.50;;;;;;5031206;28;20603;-77
2022/03/26 11:57:18;;;;;;;17.90;15.67;;;29.80;30.70;;;;;;5014477;28;21155;-77
2022/03/26 11:59:45;;;;;;;17.00;15.20;;;29.70;30.40;;;;;;5048128;28;20308;-78
2022/03/26 12:02:34;;;;;;;17.03;15.27;;;29.70;30.40;;;;;;5054297;28;20575;-78
2022/03/26 12:07:50;;;;;;;17.13;14.43;;;29.30;30.50;;;;;;5033098;28;20560;-75
2022/03/26 12:10:18;;;;;;;19.80;16.47;;;29.30;30.70;;;;;;5032733;28;20615;-74
2022/03/26 12:12:45;;;;;;;20.53;15.63;;;29.10;30.50;;;;;;5034934;28;20638;-75
2022/03/26 12:15:12;;;;;;;16.07;14.40;;;29.00;30.70;;;;;;5033553;28;20568;-75
2022/03/26 12:17:56;;;;;;;18.97;14.57;;;28.90;30.50;;;;;;5032058;28;20608;-75
2022/03/26 12:20:36;;;;;;;15.20;13.60;;;28.60;30.50;;;;;;5032907;28;21111;-74
2022/03/26 12:23:15;;;;;;;21.27;14.50;;;28.50;30.50;;;;;;5050753;28;20657;-74
2022/03/26 12:25:50;;;;;;;15.03;12.63;;;28.30;30.60;;;;;;5014157;28;20723;-75
2022/03/26 12:28:25;;;;;;;18.37;16.10;;;28.20;30.70;;;;;;5032047;28;20591;-75
2022/03/26 12:30:57;;;;;;;15.87;12.57;;;28.00;30.80;;;;;;5035378;28;20617;-74
2022/03/26 12:33:23;;;;;;;15.23;12.90;;;27.90;31.00;;;;;;5030582;28;20623;-75
2022/03/26 12:35:51;;;;;;;17.93;13.73;;;27.80;30.90;;;;;;5030263;28;20589;-75
2022/03/26 12:38:18;;;;;;;17.60;15.07;;;27.60;31.00;;;;;;5031777;28;21219;-75
2022/03/26 12:40:56;;;;;;;16.97;13.20;;;27.50;31.10;;;;;;5030630;28;20588;-76
2022/03/26 12:43:23;;;;;;;15.10;13.13;;;27.40;31.30;;;;;;5030657;28;20631;-75